Time;durP1;ratioP1;P1;durP2;ratioP2;P2;SDS_P1;SDS_P2;PMS_P1;PMS_P2;Temp;Humidity;BMP_temperature;BMP_pressure;BME280_temperature;BME280_humidity;BME280_pressure;Samples;Min_cycle;Max_cycle;Signal;HPM_P1;HPM_P2
2023/07/31 00:01:21;;;;;;;4.22;1.05;;;16.20;99.90;;;;;;4993535;28;20088;-75
2023/07/31 00:03:47;;;;;;;6.43;1.50;;;16.10;99.90;;;;;;4974982;28;20037;-75
2023/07/31 00:06:12;;;;;;;3.72;1.30;;;16.10;99.90;;;;;;4989362;28;20441;-76
2023/07/31 00:08:38;;;;;;;3.33;1.00;;;16.10;99.90;;;;;;4989310;28;20569;-76
2023/07/31 00:11:04;;;;;;;5.13;1.17;;;16.00;99.90;;;;;;4979920;28;20025;-76
2023/07/31 00:13:29;;;;;;;3.83;1.20;;;16.00;99.90;;;;;;4978576;28;20031;-75
2023/07/31 00:15:55;;;;;;;3.70;1.15;;;16.00;99.90;;;;;;4991890;28;20404;-74
2023/07/31 00:18:20;;;;;;;4.85;1.30;;;16.00;99.90;;;;;;4991015;28;20027;-76
2023/07/31 00:20:46;;;;;;;3.72;1.17;;;16.00;99.90;;;;;;4985562;28;20023;-76
2023/07/31 00:23:12;;;;;;;2.67;1.10;;;16.00;99.90;;;;;;4989623;28;20023;-76
2023/07/31 00:25:37;;;;;;;3.30;1.38;;;15.90;99.90;;;;;;4992151;28;20034;-76
2023/07/31 00:28:03;;;;;;;4.38;1.20;;;15.90;99.90;;;;;;4981504;28;20031;-76
2023/07/31 00:30:29;;;;;;;4.10;1.30;;;15.90;99.90;;;;;;4995508;28;20030;-76
2023/07/31 00:32:54;;;;;;;3.00;1.67;;;15.90;99.90;;;;;;4995730;28;20026;-76
2023/07/31 00:35:20;;;;;;;2.53;1.30;;;15.90;99.90;;;;;;4995756;28;20022;-75
2023/07/31 00:37:45;;;;;;;3.38;1.17;;;15.80;99.90;;;;;;4995905;28;20035;-76
2023/07/31 00:40:11;;;;;;;5.50;1.38;;;15.80;99.90;;;;;;4992871;28;20030;-76
2023/07/31 00:42:37;;;;;;;3.38;1.05;;;15.80;99.90;;;;;;4993411;28;20038;-76
2023/07/31 00:45:02;;;;;;;3.75;1.38;;;15.80;99.90;;;;;;4994501;28;20030;-76
2023/07/31 00:47:28;;;;;;;3.95;1.48;;;15.80;99.90;;;;;;4980780;28;20030;-75
2023/07/31 00:49:54;;;;;;;2.15;1.10;;;15.80;99.90;;;;;;4976538;28;20018;-74
2023/07/31 00:52:20;;;;;;;1.77;0.80;;;15.80;99.90;;;;;;4976216;28;20392;-75
2023/07/31 00:54:46;;;;;;;3.92;1.27;;;15.80;99.90;;;;;;4975519;28;20041;-75
2023/07/31 00:57:12;;;;;;;2.88;1.15;;;15.80;99.90;;;;;;4991333;28;20030;-75
2023/07/31 00:59:37;;;;;;;5.47;1.77;;;15.80;99.90;;;;;;4992252;28;20034;-75
2023/07/31 01:02:03;;;;;;;3.60;1.58;;;15.70;99.90;;;;;;4974960;28;20049;-74
2023/07/31 01:04:29;;;;;;;7.63;1.27;;;15.80;99.90;;;;;;4990617;28;20600;-74
2023/07/31 01:07:13;;;;;;;2.90;1.50;;;15.70;99.90;;;;;;4990281;28;20113;-74
2023/07/31 01:10:08;;;;;;;4.70;1.30;;;15.70;99.90;;;;;;4983114;28;20061;-74
2023/07/31 01:12:34;;;;;;;1.13;0.70;;;15.70;99.90;;;;;;4977744;28;20078;-75
2023/07/31 01:15:12;;;;;;;2.83;1.02;;;15.60;99.90;;;;;;4974748;28;20022;-75
2023/07/31 01:17:38;;;;;;;4.72;1.15;;;15.60;99.90;;;;;;4976192;28;20424;-75
2023/07/31 01:20:09;;;;;;;2.50;1.15;;;15.60;99.90;;;;;;4972332;28;20030;-75
2023/07/31 01:23:08;;;;;;;4.32;1.30;;;15.60;99.90;;;;;;4976086;28;20633;-75
2023/07/31 01:26:01;;;;;;;3.83;1.35;;;15.60;99.90;;;;;;4989236;28;20114;-74
2023/07/31 01:28:39;;;;;;;3.65;1.13;;;15.60;99.90;;;;;;4975825;28;20045;-75
2023/07/31 01:31:09;;;;;;;4.53;1.38;;;15.60;99.90;;;;;;4999907;28;20072;-74
2023/07/31 01:33:36;;;;;;;4.78;1.38;;;15.60;99.90;;;;;;5014825;28;20030;-74
2023/07/31 01:36:02;;;;;;;6.38;1.42;;;15.60;99.90;;;;;;5005961;28;20381;-75
2023/07/31 01:38:27;;;;;;;6.18;0.90;;;15.60;99.90;;;;;;5002619;28;20025;-74
2023/07/31 01:40:53;;;;;;;4.43;1.17;;;15.60;99.90;;;;;;4992700;28;20022;-75
2023/07/31 01:43:19;;;;;;;3.38;1.35;;;15.50;99.90;;;;;;4993401;28;20026;-75
2023/07/31 01:45:44;;;;;;;2.55;0.90;;;15.50;99.90;;;;;;4973511;28;20546;-73
2023/07/31 01:48:10;;;;;;;3.83;1.52;;;15.50;99.90;;;;;;4989950;28;20077;-74
2023/07/31 01:50:35;;;;;;;5.15;1.45;;;15.50;99.90;;;;;;4989748;28;20026;-75
2023/07/31 01:53:01;;;;;;;2.78;1.15;;;15.40;99.90;;;;;;4989552;28;20023;-74
2023/07/31 01:55:27;;;;;;;4.05;1.75;;;15.40;99.90;;;;;;4988546;28;20030;-75
2023/07/31 01:57:53;;;;;;;2.75;1.38;;;15.40;99.90;;;;;;4998792;28;20034;-74
2023/07/31 02:00:18;;;;;;;4.30;1.40;;;15.40;99.90;;;;;;4996791;28;20019;-74
2023/07/31 02:02:44;;;;;;;4.07;1.20;;;15.30;99.90;;;;;;4997830;28;20035;-74
2023/07/31 02:05:09;;;;;;;4.22;1.38;;;15.30;99.90;;;;;;5000537;28;20437;-74
2023/07/31 02:07:35;;;;;;;3.88;1.40;;;15.30;99.90;;;;;;4997396;28;20041;-75
2023/07/31 02:10:01;;;;;;;3.45;1.42;;;15.30;99.90;;;;;;5006972;28;20456;-75
2023/07/31 02:12:30;;;;;;;2.90;1.25;;;15.20;99.90;;;;;;5014729;28;20116;-75
2023/07/31 02:14:55;;;;;;;3.42;1.27;;;15.20;99.90;;;;;;5004833;28;20503;-74
2023/07/31 02:17:21;;;;;;;9.32;2.42;;;15.20;99.90;;;;;;4979727;28;20026;-75
2023/07/31 02:19:47;;;;;;;3.92;1.50;;;15.20;99.90;;;;;;4998207;28;20492;-74
2023/07/31 02:22:13;;;;;;;3.78;1.30;;;15.20;99.90;;;;;;4983528;28;20054;-75
2023/07/31 02:24:38;;;;;;;5.97;1.30;;;15.20;99.90;;;;;;4994962;28;20065;-75
2023/07/31 02:27:04;;;;;;;4.93;1.20;;;15.20;99.90;;;;;;4996148;28;20492;-75
2023/07/31 02:29:30;;;;;;;3.65;1.55;;;15.20;99.90;;;;;;5006102;28;20057;-75
2023/07/31 02:31:55;;;;;;;5.13;1.50;;;15.10;99.90;;;;;;4993372;28;20054;-75
2023/07/31 02:34:21;;;;;;;3.22;1.35;;;15.10;99.90;;;;;;4998527;28;20026;-75
2023/07/31 02:36:46;;;;;;;4.78;1.48;;;15.10;99.90;;;;;;4999456;28;20439;-74
2023/07/31 02:39:12;;;;;;;5.13;1.30;;;15.10;99.90;;;;;;4978258;28;20484;-76
2023/07/31 02:41:38;;;;;;;6.82;1.40;;;15.10;99.90;;;;;;4988890;28;20068;-75
2023/07/31 02:44:06;;;;;;;3.95;1.38;;;15.10;99.90;;;;;;4992734;28;20031;-75
2023/07/31 02:46:31;;;;;;;4.82;1.52;;;15.10;99.90;;;;;;4990041;28;20468;-75
2023/07/31 02:48:57;;;;;;;5.13;1.17;;;15.10;99.90;;;;;;4983288;23;20037;-78
2023/07/31 02:51:22;;;;;;;4.45;1.60;;;15.00;99.90;;;;;;4990152;28;20031;-79
2023/07/31 02:53:48;;;;;;;4.93;1.25;;;15.00;99.90;;;;;;4968283;28;20512;-79
2023/07/31 02:56:14;;;;;;;2.10;1.10;;;15.00;99.90;;;;;;4986155;28;20500;-79
2023/07/31 02:58:39;;;;;;;3.22;1.77;;;15.00;99.90;;;;;;4963147;28;20037;-79
2023/07/31 03:01:05;;;;;;;3.10;1.48;;;15.10;99.90;;;;;;4960925;28;20041;-79
2023/07/31 03:03:31;;;;;;;3.95;1.45;;;15.00;99.90;;;;;;4965936;28;20026;-80
2023/07/31 03:05:56;;;;;;;2.38;1.20;;;15.00;99.90;;;;;;4969262;28;20146;-78
2023/07/31 03:08:23;;;;;;;4.47;1.30;;;15.00;99.90;;;;;;4986576;28;20086;-78
2023/07/31 03:10:51;;;;;;;5.53;1.48;;;15.00;99.90;;;;;;4984318;28;20054;-79
2023/07/31 03:13:17;;;;;;;1.90;1.00;;;15.00;99.90;;;;;;4980683;28;20027;-77
2023/07/31 03:15:43;;;;;;;2.72;1.60;;;15.00;99.90;;;;;;4970778;28;20034;-78
2023/07/31 03:18:09;;;;;;;2.53;1.52;;;15.00;99.90;;;;;;4970704;28;20034;-78
2023/07/31 03:20:34;;;;;;;3.03;1.45;;;15.00;99.90;;;;;;4971483;28;20367;-77
2023/07/31 03:23:00;;;;;;;5.25;1.38;;;15.00;99.90;;;;;;4971734;28;20058;-78
2023/07/31 03:25:26;;;;;;;5.72;1.30;;;15.00;99.90;;;;;;4972413;28;20039;-78
2023/07/31 03:27:51;;;;;;;4.38;1.70;;;15.00;99.90;;;;;;4979093;28;20038;-77
2023/07/31 03:30:17;;;;;;;5.55;1.98;;;14.90;99.90;;;;;;4960609;28;20057;-77
2023/07/31 03:32:43;;;;;;;4.10;1.67;;;14.90;99.90;;;;;;4971445;28;20475;-77
2023/07/31 03:35:08;;;;;;;3.97;1.65;;;15.00;99.90;;;;;;4987123;28;20545;-77
2023/07/31 03:37:34;;;;;;;4.00;1.75;;;14.90;99.90;;;;;;4975164;28;20523;-78
2023/07/31 03:39:59;;;;;;;4.43;1.83;;;14.90;99.90;;;;;;4975530;28;20032;-78
2023/07/31 03:42:25;;;;;;;5.47;1.67;;;14.90;99.90;;;;;;4962241;28;20054;-77
2023/07/31 03:44:51;;;;;;;5.43;2.33;;;14.90;99.90;;;;;;4958524;28;20058;-78
2023/07/31 03:47:16;;;;;;;3.75;2.00;;;14.80;99.90;;;;;;4972255;28;20035;-78
2023/07/31 03:49:42;;;;;;;5.28;1.52;;;14.80;99.90;;;;;;4986035;28;20115;-76
2023/07/31 03:52:07;;;;;;;5.38;1.70;;;14.80;99.90;;;;;;4952426;28;20026;-78
2023/07/31 03:54:33;;;;;;;4.05;1.80;;;14.70;99.90;;;;;;4971177;28;20031;-77
2023/07/31 03:56:59;;;;;;;6.80;2.85;;;14.60;99.90;;;;;;4973446;28;20023;-77
2023/07/31 03:59:24;;;;;;;5.80;1.77;;;14.60;99.90;;;;;;4971160;28;20085;-77
2023/07/31 04:01:50;;;;;;;3.03;1.75;;;14.60;99.90;;;;;;4973372;28;20053;-78
2023/07/31 04:04:15;;;;;;;3.15;1.70;;;14.60;99.90;;;;;;4974749;28;20109;-78
2023/07/31 04:06:41;;;;;;;6.28;2.25;;;14.60;99.90;;;;;;4967957;28;20090;-79
2023/07/31 04:09:06;;;;;;;3.65;1.67;;;14.60;99.90;;;;;;4970242;28;20022;-78
2023/07/31 04:11:32;;;;;;;4.57;2.28;;;14.50;99.90;;;;;;4982875;28;20024;-77
2023/07/31 04:13:58;;;;;;;5.05;1.90;;;14.60;99.90;;;;;;4971151;28;20038;-77
2023/07/31 04:16:23;;;;;;;3.95;1.83;;;14.60;99.90;;;;;;4949952;28;20108;-77
2023/07/31 04:18:49;;;;;;;4.53;2.28;;;14.60;99.90;;;;;;4960026;28;20512;-76
2023/07/31 04:21:15;;;;;;;2.72;1.92;;;14.60;99.90;;;;;;4967491;28;20041;-76
2023/07/31 04:23:40;;;;;;;3.95;1.80;;;14.70;99.90;;;;;;4978780;28;20122;-78
2023/07/31 04:26:06;;;;;;;5.32;1.80;;;14.60;99.90;;;;;;4970394;28;20142;-77
2023/07/31 04:28:31;;;;;;;5.38;2.20;;;14.60;99.90;;;;;;4976896;28;20123;-77
2023/07/31 04:30:57;;;;;;;3.55;2.05;;;14.60;99.90;;;;;;4962098;28;20095;-77
2023/07/31 04:33:23;;;;;;;7.75;2.17;;;14.60;99.90;;;;;;4971577;28;20030;-77
2023/07/31 04:35:52;;;;;;;7.63;1.70;;;14.60;99.90;;;;;;4955465;28;20041;-78
2023/07/31 04:38:21;;;;;;;4.07;1.90;;;14.60;99.90;;;;;;4985058;28;20058;-77
2023/07/31 04:40:47;;;;;;;6.75;2.22;;;14.60;99.90;;;;;;4972075;28;20538;-79
2023/07/31 04:43:12;;;;;;;5.53;2.67;;;14.70;99.90;;;;;;4975288;28;20077;-78
2023/07/31 04:45:38;;;;;;;3.45;2.20;;;14.70;99.90;;;;;;4975765;28;20050;-78
2023/07/31 04:48:04;;;;;;;4.75;2.30;;;14.80;99.90;;;;;;4973975;28;20967;-78
2023/07/31 04:50:30;;;;;;;3.42;2.08;;;14.70;99.90;;;;;;4969679;28;20513;-77
2023/07/31 04:52:56;;;;;;;8.30;2.28;;;14.80;99.90;;;;;;4976891;28;20023;-78
2023/07/31 04:55:22;;;;;;;7.63;2.25;;;14.80;99.90;;;;;;4951687;28;20049;-78
2023/07/31 04:57:47;;;;;;;9.20;2.60;;;14.90;99.90;;;;;;4969670;28;20030;-79
2023/07/31 05:00:13;;;;;;;6.28;2.85;;;14.90;99.90;;;;;;4966683;28;20034;-79
2023/07/31 05:02:39;;;;;;;7.55;2.90;;;14.90;99.90;;;;;;4971464;28;20105;-80
2023/07/31 05:05:04;;;;;;;7.05;2.75;;;15.00;99.90;;;;;;4968663;28;20102;-82
2023/07/31 05:07:30;;;;;;;5.38;2.22;;;15.00;99.90;;;;;;4968545;28;20035;-78
2023/07/31 05:09:55;;;;;;;7.63;2.53;;;15.00;99.90;;;;;;4965364;28;20023;-79
2023/07/31 05:12:21;;;;;;;4.45;1.98;;;15.10;99.90;;;;;;4953787;28;20050;-79
2023/07/31 05:14:47;;;;;;;6.40;2.80;;;15.10;99.90;;;;;;4966579;28;20034;-78
2023/07/31 05:17:12;;;;;;;4.70;2.03;;;15.20;99.90;;;;;;4962272;28;20433;-77
2023/07/31 05:19:38;;;;;;;4.72;1.98;;;15.20;99.90;;;;;;4964279;28;20085;-77
2023/07/31 05:22:04;;;;;;;3.97;2.38;;;15.20;99.90;;;;;;4963454;28;20027;-78
2023/07/31 05:24:30;;;;;;;7.85;2.03;;;15.30;99.90;;;;;;4970895;28;20105;-77
2023/07/31 05:26:55;;;;;;;4.70;1.55;;;15.30;99.90;;;;;;4965198;28;20107;-78
2023/07/31 05:29:21;;;;;;;4.57;1.70;;;15.40;99.90;;;;;;4970546;28;20548;-70
2023/07/31 05:31:47;;;;;;;4.80;2.03;;;15.40;99.90;;;;;;4959270;28;20039;-70
2023/07/31 05:34:12;;;;;;;5.75;2.00;;;15.40;99.90;;;;;;4959753;28;20390;-70
2023/07/31 05:36:38;;;;;;;5.40;1.77;;;15.40;99.90;;;;;;4969309;28;20034;-70
2023/07/31 05:39:07;;;;;;;5.15;2.10;;;15.50;99.90;;;;;;4966040;28;20026;-71
2023/07/31 05:41:32;;;;;;;6.25;2.13;;;15.50;99.90;;;;;;4971911;28;20027;-70
2023/07/31 05:43:58;;;;;;;3.60;1.92;;;15.50;99.90;;;;;;4970143;28;20038;-69
2023/07/31 05:46:23;;;;;;;4.50;2.28;;;15.60;99.90;;;;;;4952609;28;20079;-70
2023/07/31 05:48:49;;;;;;;5.20;1.85;;;15.70;99.90;;;;;;4964848;28;20034;-70
2023/07/31 05:51:15;;;;;;;9.25;2.55;;;15.70;99.90;;;;;;4968586;28;20023;-69
2023/07/31 05:53:40;;;;;;;5.55;2.03;;;15.80;99.90;;;;;;4968771;28;20034;-70
2023/07/31 05:56:06;;;;;;;3.58;2.17;;;15.90;99.90;;;;;;4961728;28;20059;-69
2023/07/31 05:58:32;;;;;;;8.05;2.40;;;15.90;99.90;;;;;;4969146;28;20386;-78
2023/07/31 06:00:57;;;;;;;6.45;2.17;;;16.00;99.90;;;;;;4956134;28;20038;-78
2023/07/31 06:03:23;;;;;;;5.30;2.08;;;16.10;99.90;;;;;;4961743;28;20018;-78
2023/07/31 06:05:48;;;;;;;2.72;1.33;;;16.10;99.90;;;;;;4975648;28;20090;-78
2023/07/31 06:08:14;;;;;;;4.38;1.63;;;16.20;99.90;;;;;;4974448;28;20026;-77
2023/07/31 06:10:40;;;;;;;5.18;1.77;;;16.20;99.90;;;;;;4971600;28;20070;-78
2023/07/31 06:13:05;;;;;;;6.90;1.88;;;16.30;99.90;;;;;;4977503;28;20015;-77
2023/07/31 06:15:31;;;;;;;4.60;2.08;;;16.40;99.90;;;;;;4975409;28;20150;-78
2023/07/31 06:17:57;;;;;;;5.05;1.95;;;16.40;99.90;;;;;;4977898;28;20058;-78
2023/07/31 06:20:23;;;;;;;4.45;1.60;;;16.40;99.90;;;;;;4968804;28;20465;-79
2023/07/31 06:22:48;;;;;;;4.53;2.10;;;16.50;99.90;;;;;;4956733;28;20062;-77
2023/07/31 06:25:14;;;;;;;6.75;2.63;;;16.50;99.90;;;;;;4973779;28;20397;-77
2023/07/31 06:27:39;;;;;;;5.93;1.65;;;16.50;99.90;;;;;;4972298;28;20038;-77
2023/07/31 06:30:06;;;;;;;3.38;1.55;;;16.50;99.90;;;;;;4969413;28;20023;-77
2023/07/31 06:32:32;;;;;;;5.45;1.90;;;16.60;99.90;;;;;;4955227;28;20058;-77
2023/07/31 06:34:57;;;;;;;7.45;1.90;;;16.60;99.90;;;;;;4967561;28;20067;-78
2023/07/31 06:37:23;;;;;;;2.25;1.65;;;16.60;99.90;;;;;;4968595;28;20118;-77
2023/07/31 06:39:49;;;;;;;3.90;1.25;;;16.70;99.90;;;;;;4967953;28;20023;-78
2023/07/31 06:42:14;;;;;;;4.78;2.03;;;16.70;99.90;;;;;;4977807;28;20114;-77
2023/07/31 06:44:40;;;;;;;7.80;2.03;;;16.90;99.90;;;;;;4968272;28;20038;-77
2023/07/31 06:47:05;;;;;;;4.05;2.13;;;16.90;99.90;;;;;;4954239;28;20067;-77
2023/07/31 06:49:31;;;;;;;4.70;1.75;;;17.10;99.90;;;;;;4967257;28;20053;-77
2023/07/31 06:51:57;;;;;;;4.38;1.95;;;17.20;99.90;;;;;;4986557;28;20030;-77
2023/07/31 06:54:22;;;;;;;5.53;2.17;;;17.30;99.90;;;;;;4969011;28;20330;-76
2023/07/31 06:56:48;;;;;;;5.50;2.33;;;17.50;99.90;;;;;;4966723;28;20129;-77
2023/07/31 06:59:13;;;;;;;3.75;1.77;;;17.60;99.90;;;;;;4968368;28;20086;-77
2023/07/31 07:01:39;;;;;;;7.75;1.95;;;17.80;99.90;;;;;;4948833;28;20041;-76
2023/07/31 07:04:05;;;;;;;8.52;2.30;;;18.00;99.90;;;;;;4969883;28;20034;-77
2023/07/31 07:06:30;;;;;;;6.00;1.77;;;18.10;99.90;;;;;;4950473;28;20126;-77
2023/07/31 07:08:56;;;;;;;5.63;1.60;;;18.20;99.90;;;;;;4969899;28;20046;-77
2023/07/31 07:11:21;;;;;;;3.83;1.52;;;18.30;99.90;;;;;;4954873;28;20089;-76
2023/07/31 07:13:47;;;;;;;8.18;1.80;;;18.40;99.90;;;;;;4974845;28;20031;-76
2023/07/31 07:16:12;;;;;;;5.30;1.67;;;18.50;99.90;;;;;;4984815;28;20078;-76
2023/07/31 07:18:38;;;;;;;3.10;1.67;;;18.60;99.90;;;;;;4957927;28;20038;-76
2023/07/31 07:21:03;;;;;;;2.25;1.13;;;18.60;99.90;;;;;;4965430;28;20381;-77
2023/07/31 07:23:29;;;;;;;3.78;1.83;;;18.70;99.90;;;;;;4970494;28;20525;-76
2023/07/31 07:25:55;;;;;;;4.47;1.35;;;18.80;99.90;;;;;;4951018;28;20019;-77
2023/07/31 07:28:20;;;;;;;3.47;1.80;;;18.90;99.90;;;;;;4948137;28;20038;-77
2023/07/31 07:30:53;;;;;;;4.35;1.75;;;19.00;99.90;;;;;;4965112;28;20114;-77
2023/07/31 07:33:19;;;;;;;5.47;1.90;;;19.10;99.90;;;;;;4968233;28;20051;-77
2023/07/31 07:35:45;;;;;;;5.07;1.60;;;19.20;99.90;;;;;;4963608;28;20054;-77
2023/07/31 07:38:10;;;;;;;4.30;1.77;;;19.30;99.90;;;;;;4966082;28;20399;-77
2023/07/31 07:40:42;;;;;;;5.25;1.58;;;19.40;99.90;;;;;;4965831;28;20053;-77
2023/07/31 07:43:08;;;;;;;6.72;1.85;;;19.50;99.90;;;;;;4961690;28;20094;-77
2023/07/31 07:45:33;;;;;;;6.18;1.60;;;19.50;99.90;;;;;;4963220;28;20184;-76
2023/07/31 07:47:59;;;;;;;5.68;1.73;;;19.60;99.90;;;;;;4947766;28;20034;-77
2023/07/31 07:50:25;;;;;;;5.32;1.70;;;19.70;99.90;;;;;;4972769;28;20041;-77
2023/07/31 07:52:51;;;;;;;6.50;1.45;;;19.70;99.90;;;;;;4963797;28;20109;-76
2023/07/31 07:55:16;;;;;;;7.78;1.95;;;19.80;99.90;;;;;;4966052;28;20481;-76
2023/07/31 07:57:44;;;;;;;4.88;1.40;;;19.80;99.90;;;;;;4966481;28;20031;-76
2023/07/31 08:00:10;;;;;;;4.10;1.65;;;19.80;99.90;;;;;;4969912;28;20102;-77
2023/07/31 08:02:36;;;;;;;4.15;1.20;;;19.80;99.90;;;;;;4961828;28;21043;-76
2023/07/31 08:05:01;;;;;;;5.60;1.85;;;19.80;99.90;;;;;;4949940;28;20395;-77
2023/07/31 08:07:27;;;;;;;5.65;1.50;;;19.80;99.90;;;;;;4969388;28;20090;-77
2023/07/31 08:09:52;;;;;;;4.72;1.60;;;19.90;99.90;;;;;;4969045;28;20027;-77
2023/07/31 08:12:18;;;;;;;6.72;1.67;;;20.00;99.90;;;;;;4964176;28;20027;-76
2023/07/31 08:14:43;;;;;;;7.13;1.85;;;20.10;99.30;;;;;;4972279;28;20041;-76
2023/07/31 08:17:09;;;;;;;4.32;1.42;;;20.30;99.20;;;;;;4971518;28;20505;-77
2023/07/31 08:19:35;;;;;;;3.92;1.70;;;20.30;97.70;;;;;;4970353;28;20031;-77
2023/07/31 08:22:00;;;;;;;3.40;1.70;;;20.40;97.70;;;;;;4970177;28;20062;-77
2023/07/31 08:24:26;;;;;;;4.57;1.55;;;20.40;97.50;;;;;;4971410;28;20026;-77
2023/07/31 08:26:51;;;;;;;7.82;2.17;;;20.50;97.60;;;;;;4969694;28;20031;-77
2023/07/31 08:29:17;;;;;;;4.53;1.90;;;20.50;97.10;;;;;;4955364;28;20034;-76
2023/07/31 08:31:42;;;;;;;4.53;1.75;;;20.60;96.30;;;;;;4968487;28;20489;-77
2023/07/31 08:34:08;;;;;;;4.10;1.63;;;20.70;96.40;;;;;;4971010;28;20019;-76
2023/07/31 08:36:34;;;;;;;9.77;1.60;;;20.80;95.70;;;;;;4968370;28;20397;-76
2023/07/31 08:38:59;;;;;;;3.30;1.50;;;20.90;95.60;;;;;;4973237;28;20025;-76
2023/07/31 08:41:25;;;;;;;5.22;1.70;;;21.00;95.00;;;;;;4974922;28;20543;-76
2023/07/31 08:43:52;;;;;;;4.03;1.58;;;21.10;94.90;;;;;;4951870;28;20038;-76
2023/07/31 08:46:18;;;;;;;3.72;1.70;;;21.10;94.50;;;;;;4983843;28;20059;-76
2023/07/31 08:48:45;;;;;;;8.65;1.88;;;21.20;95.10;;;;;;4975909;28;20064;-76
2023/07/31 08:51:11;;;;;;;6.13;1.75;;;21.30;94.20;;;;;;4969945;28;20022;-76
2023/07/31 08:53:37;;;;;;;6.68;2.42;;;21.40;94.30;;;;;;4970453;28;20035;-75
2023/07/31 08:56:04;;;;;;;5.65;2.13;;;21.50;94.10;;;;;;4971866;28;20034;-76
2023/07/31 08:58:32;;;;;;;4.50;1.88;;;21.50;94.00;;;;;;4953162;28;20043;-74
2023/07/31 09:01:00;;;;;;;4.82;1.80;;;21.60;93.30;;;;;;4951298;28;20057;-76
2023/07/31 09:03:26;;;;;;;4.70;1.83;;;21.70;93.30;;;;;;4979644;28;20034;-76
2023/07/31 09:05:53;;;;;;;4.38;1.70;;;21.70;93.00;;;;;;4963001;28;20038;-76
2023/07/31 09:08:21;;;;;;;3.90;1.42;;;21.80;92.80;;;;;;4971802;28;20046;-78
2023/07/31 09:10:47;;;;;;;5.63;1.63;;;21.80;92.60;;;;;;4952354;28;20081;-78
2023/07/31 09:13:14;;;;;;;5.20;1.50;;;21.90;92.50;;;;;;4966882;28;20444;-78
2023/07/31 09:15:42;;;;;;;5.60;1.88;;;21.90;92.50;;;;;;4970178;28;20117;-78
2023/07/31 09:18:08;;;;;;;5.45;1.92;;;22.00;92.70;;;;;;4972980;28;20474;-77
2023/07/31 09:20:34;;;;;;;4.28;1.73;;;22.00;92.50;;;;;;4972850;28;20033;-77
2023/07/31 09:23:14;;;;;;;3.50;1.58;;;22.10;92.40;;;;;;4967689;28;20494;-78
2023/07/31 09:25:42;;;;;;;3.50;1.50;;;22.20;92.30;;;;;;4943958;28;20037;-77
2023/07/31 09:28:10;;;;;;;5.07;1.88;;;22.30;92.40;;;;;;4980239;28;20235;-79
2023/07/31 09:30:52;;;;;;;3.88;1.65;;;22.40;92.30;;;;;;4968463;28;20540;-79
2023/07/31 09:33:20;;;;;;;4.40;1.92;;;22.40;91.80;;;;;;4977596;28;20398;-77
2023/07/31 09:35:48;;;;;;;5.03;1.77;;;22.50;91.40;;;;;;4974642;28;20023;-78
2023/07/31 09:38:14;;;;;;;5.20;2.17;;;22.50;91.10;;;;;;4976361;28;20023;-79
2023/07/31 09:40:42;;;;;;;4.07;2.05;;;22.60;91.30;;;;;;4953629;28;20497;-79
2023/07/31 09:43:13;;;;;;;5.68;1.80;;;22.50;91.10;;;;;;4969416;28;20114;-78
2023/07/31 09:45:43;;;;;;;3.65;1.63;;;22.50;91.10;;;;;;4968750;28;20034;-78
2023/07/31 09:48:11;;;;;;;5.97;1.80;;;22.50;91.00;;;;;;4963133;28;20026;-78
2023/07/31 09:50:39;;;;;;;5.10;1.77;;;22.60;91.20;;;;;;4963022;28;20113;-78
2023/07/31 09:53:05;;;;;;;4.05;2.33;;;22.60;91.30;;;;;;4964477;28;20019;-77
2023/07/31 09:55:34;;;;;;;5.78;1.60;;;22.60;91.00;;;;;;4962294;28;20394;-77
2023/07/31 09:58:03;;;;;;;5.88;1.63;;;22.60;90.80;;;;;;4962123;28;20039;-79
2023/07/31 10:00:30;;;;;;;2.50;1.60;;;22.60;91.00;;;;;;4948206;28;20165;-80
2023/07/31 10:03:00;;;;;;;5.75;2.15;;;22.60;91.10;;;;;;4948495;28;20740;-78
2023/07/31 10:05:36;;;;;;;4.78;1.83;;;22.70;91.10;;;;;;4963396;28;20102;-77
2023/07/31 10:08:02;;;;;;;6.82;2.03;;;22.60;90.90;;;;;;4958059;28;20039;-79
2023/07/31 10:10:28;;;;;;;5.05;2.13;;;22.70;91.10;;;;;;4965873;28;20497;-77
2023/07/31 10:12:59;;;;;;;4.13;1.75;;;22.70;91.20;;;;;;4965528;28;20053;-77
2023/07/31 10:15:25;;;;;;;4.10;1.77;;;22.70;91.10;;;;;;4973413;28;20035;-77
2023/07/31 10:17:52;;;;;;;5.47;1.95;;;22.70;91.00;;;;;;4963445;28;20042;-77
2023/07/31 10:20:17;;;;;;;4.30;2.38;;;22.70;90.60;;;;;;4979375;28;20113;-77
2023/07/31 10:22:47;;;;;;;7.85;1.90;;;22.80;90.70;;;;;;4982439;28;20041;-77
2023/07/31 10:25:14;;;;;;;2.47;1.60;;;22.80;91.00;;;;;;4974798;28;20038;-77
2023/07/31 10:27:40;;;;;;;4.53;1.65;;;22.90;90.50;;;;;;4963238;28;20101;-78
2023/07/31 10:30:08;;;;;;;4.72;1.77;;;23.00;90.50;;;;;;4967497;28;20050;-79
2023/07/31 10:32:34;;;;;;;5.80;1.75;;;23.00;90.00;;;;;;4974916;28;20114;-79
2023/07/31 10:35:03;;;;;;;3.95;1.95;;;23.00;90.10;;;;;;4962401;28;20034;-80
2023/07/31 10:37:35;;;;;;;4.18;2.13;;;23.00;90.00;;;;;;4961366;28;20498;-79
2023/07/31 10:40:11;;;;;;;2.97;2.00;;;23.00;90.20;;;;;;4962534;28;20109;-78
2023/07/31 10:42:58;;;;;;;4.40;1.70;;;23.10;90.60;;;;;;4963213;28;20030;-81
2023/07/31 10:45:36;;;;;;;6.13;2.10;;;23.10;90.20;;;;;;4963350;28;20414;-80
2023/07/31 10:48:05;;;;;;;3.58;1.70;;;23.10;90.40;;;;;;4966928;28;20370;-79
2023/07/31 10:50:38;;;;;;;4.55;1.92;;;23.20;90.30;;;;;;4965837;28;20023;-78
2023/07/31 10:53:04;;;;;;;4.65;1.60;;;23.20;90.20;;;;;;4960173;28;20038;-77
2023/07/31 10:55:40;;;;;;;3.88;1.60;;;23.20;90.20;;;;;;4967859;28;20038;-79
2023/07/31 10:58:13;;;;;;;5.70;2.47;;;23.20;90.10;;;;;;4961557;28;20054;-78
2023/07/31 11:00:44;;;;;;;4.85;1.85;;;23.30;90.10;;;;;;4960882;28;20030;-80
2023/07/31 11:03:17;;;;;;;8.15;2.22;;;23.30;89.60;;;;;;4968718;28;20035;-78
2023/07/31 11:05:58;;;;;;;3.00;1.58;;;23.30;89.40;;;;;;4963481;28;20026;-79
2023/07/31 11:08:24;;;;;;;5.63;2.22;;;23.30;88.70;;;;;;4981451;28;20034;-78
2023/07/31 11:11:03;;;;;;;7.20;2.05;;;23.30;89.40;;;;;;4966669;28;20086;-78
2023/07/31 11:13:29;;;;;;;6.30;1.90;;;23.30;89.40;;;;;;4960587;28;20033;-77
2023/07/31 11:15:55;;;;;;;4.03;1.80;;;23.30;88.50;;;;;;4960091;28;20027;-79
2023/07/31 11:18:21;;;;;;;6.78;2.13;;;23.40;88.80;;;;;;4960478;28;20030;-79
2023/07/31 11:20:46;;;;;;;4.60;2.67;;;23.40;89.00;;;;;;4946062;28;20035;-79
2023/07/31 11:23:12;;;;;;;4.70;2.33;;;23.60;88.60;;;;;;4965478;28;20067;-78
2023/07/31 11:25:43;;;;;;;4.38;1.98;;;23.70;88.20;;;;;;4945584;28;20041;-81
2023/07/31 11:28:11;;;;;;;8.10;2.03;;;23.80;87.10;;;;;;4982285;28;20031;-80
2023/07/31 11:30:37;;;;;;;5.38;2.22;;;23.80;86.20;;;;;;4962666;28;20038;-80
2023/07/31 11:33:04;;;;;;;5.35;2.00;;;23.90;85.50;;;;;;4950198;28;20036;-78
2023/07/31 11:35:35;;;;;;;4.45;2.20;;;24.00;85.90;;;;;;4964572;28;20019;-76
2023/07/31 11:38:01;;;;;;;2.58;1.42;;;24.10;86.30;;;;;;4964492;28;20020;-76
2023/07/31 11:40:30;;;;;;;3.17;1.50;;;24.20;86.10;;;;;;4967841;28;20027;-78
2023/07/31 11:42:57;;;;;;;3.42;1.73;;;24.30;85.40;;;;;;4973877;28;20031;-77
2023/07/31 11:45:28;;;;;;;7.80;2.03;;;24.40;85.60;;;;;;4960458;28;20038;-77
2023/07/31 11:47:56;;;;;;;5.13;1.70;;;24.60;84.50;;;;;;4968902;28;20114;-78
2023/07/31 11:50:26;;;;;;;4.72;1.83;;;24.70;84.70;;;;;;4968226;28;20023;-79
2023/07/31 11:53:00;;;;;;;4.45;2.00;;;24.90;83.90;;;;;;4955125;28;20127;-78
2023/07/31 11:55:29;;;;;;;6.35;1.85;;;24.90;82.60;;;;;;4942625;28;20031;-78
2023/07/31 11:57:57;;;;;;;5.30;1.80;;;24.90;82.10;;;;;;4964868;28;20570;-80
2023/07/31 12:00:23;;;;;;;3.60;1.80;;;24.90;82.60;;;;;;4972363;28;20035;-79
2023/07/31 12:02:51;;;;;;;5.10;1.98;;;24.80;82.10;;;;;;4971427;28;20023;-79
2023/07/31 12:05:16;;;;;;;4.00;1.90;;;24.80;82.80;;;;;;4961155;28;20031;-78
2023/07/31 12:07:46;;;;;;;5.22;1.85;;;24.70;82.10;;;;;;4951829;28;20039;-78
2023/07/31 12:10:26;;;;;;;4.32;1.98;;;24.60;82.60;;;;;;4964233;28;20436;-77
2023/07/31 12:12:58;;;;;;;5.68;1.90;;;24.60;83.10;;;;;;4958120;28;20486;-78
2023/07/31 12:15:36;;;;;;;3.10;1.88;;;24.50;83.70;;;;;;4981177;28;20031;-79
2023/07/31 12:18:14;;;;;;;7.45;2.42;;;24.50;84.00;;;;;;4947989;28;20023;-79
2023/07/31 12:20:43;;;;;;;5.70;2.20;;;24.40;86.60;;;;;;4978490;28;20481;-77
2023/07/31 12:23:30;;;;;;;4.30;2.17;;;24.20;85.10;;;;;;4966022;28;20242;-77
2023/07/31 12:26:11;;;;;;;5.53;2.08;;;24.20;85.90;;;;;;4956242;28;20097;-77
2023/07/31 12:28:41;;;;;;;4.63;1.95;;;24.10;86.40;;;;;;4981944;28;20523;-78
2023/07/31 12:31:10;;;;;;;4.78;2.25;;;24.00;86.00;;;;;;4972290;28;20033;-77
2023/07/31 12:33:39;;;;;;;5.75;2.60;;;23.90;86.80;;;;;;4969746;28;20037;-79
2023/07/31 12:36:25;;;;;;;5.55;2.08;;;23.80;87.90;;;;;;4961199;28;20371;-80
2023/07/31 12:38:51;;;;;;;3.63;2.10;;;23.90;87.90;;;;;;4953590;28;20030;-78
2023/07/31 12:41:18;;;;;;;4.93;2.30;;;23.80;86.50;;;;;;4978597;28;20074;-79
2023/07/31 12:43:45;;;;;;;3.60;2.03;;;23.80;86.30;;;;;;4973215;28;20035;-78
2023/07/31 12:46:11;;;;;;;3.15;2.08;;;23.80;86.50;;;;;;4981572;28;20019;-80
2023/07/31 12:48:40;;;;;;;3.80;1.88;;;23.90;86.70;;;;;;4967229;28;20070;-78